sensor_id;sensor_type;location;lat;lon;timestamp;pressure;altitude;pressure_sealevel;temperature;humidity
14882;BME280;7533;51.278;12.588;2023-09-19T00:02:24;99302.47;;;27.64;60.92
14882;BME280;7533;51.278;12.588;2023-09-19T00:07:27;99303.34;;;27.73;60.65
14882;BME280;7533;51.278;12.588;2023-09-19T00:12:31;99296.19;;;27.80;60.54
14882;BME280;7533;51.278;12.588;2023-09-19T00:17:34;99296.19;;;27.88;60.39
14882;BME280;7533;51.278;12.588;2023-09-19T00:22:40;99293.47;;;27.96;59.99
14882;BME280;7533;51.278;12.588;2023-09-19T00:27:44;99293.94;;;28.00;60.24
14882;BME280;7533;51.278;12.588;2023-09-19T00:32:50;99305.84;;;28.07;59.99
14882;BME280;7533;51.278;12.588;2023-09-19T00:37:56;99306.69;;;28.07;59.82
14882;BME280;7533;51.278;12.588;2023-09-19T00:43:00;99303.47;;;28.12;59.94
14882;BME280;7533;51.278;12.588;2023-09-19T00:48:04;99295.44;;;28.18;60.00
14882;BME280;7533;51.278;12.588;2023-09-19T00:53:08;99299.34;;;28.24;59.87
14882;BME280;7533;51.278;12.588;2023-09-19T00:58:13;99308.34;;;28.25;59.56
14882;BME280;7533;51.278;12.588;2023-09-19T01:03:17;99305.47;;;28.34;59.70
14882;BME280;7533;51.278;12.588;2023-09-19T01:08:20;99299.50;;;28.31;59.51
14882;BME280;7533;51.278;12.588;2023-09-19T01:13:29;99296.13;;;28.29;59.75
14882;BME280;7533;51.278;12.588;2023-09-19T01:18:40;99303.75;;;28.25;59.47
14882;BME280;7533;51.278;12.588;2023-09-19T01:24:08;99307.66;;;28.23;59.65
14882;BME280;7533;51.278;12.588;2023-09-19T01:29:34;99305.50;;;28.18;59.61
14882;BME280;7533;51.278;12.588;2023-09-19T01:34:46;99303.94;;;28.15;59.77
14882;BME280;7533;51.278;12.588;2023-09-19T01:39:55;99306.53;;;28.09;59.62
14882;BME280;7533;51.278;12.588;2023-09-19T01:45:03;99314.72;;;28.01;59.90
14882;BME280;7533;51.278;12.588;2023-09-19T01:50:17;99318.97;;;27.87;60.40
14882;BME280;7533;51.278;12.588;2023-09-19T01:55:26;99329.84;;;27.79;60.67
14882;BME280;7533;51.278;12.588;2023-09-19T02:00:32;99326.63;;;27.75;60.57
14882;BME280;7533;51.278;12.588;2023-09-19T02:05:38;99330.66;;;27.63;60.74
14882;BME280;7533;51.278;12.588;2023-09-19T02:10:41;99356.16;;;27.62;60.72
14882;BME280;7533;51.278;12.588;2023-09-19T02:15:45;99359.88;;;27.61;60.53
14882;BME280;7533;51.278;12.588;2023-09-19T02:20:49;99367.88;;;27.46;61.02
14882;BME280;7533;51.278;12.588;2023-09-19T02:25:54;99368.34;;;27.50;60.93
14882;BME280;7533;51.278;12.588;2023-09-19T02:30:58;99368.34;;;27.41;61.07
14882;BME280;7533;51.278;12.588;2023-09-19T02:36:03;99366.16;;;27.45;60.77
14882;BME280;7533;51.278;12.588;2023-09-19T02:41:07;99368.34;;;27.41;60.93
14882;BME280;7533;51.278;12.588;2023-09-19T02:46:12;99370.41;;;27.39;60.89
14882;BME280;7533;51.278;12.588;2023-09-19T02:51:17;99377.84;;;27.37;60.96
14882;BME280;7533;51.278;12.588;2023-09-19T02:56:19;99388.38;;;27.32;60.98
14882;BME280;7533;51.278;12.588;2023-09-19T03:01:22;99388.72;;;27.29;61.14
14882;BME280;7533;51.278;12.588;2023-09-19T03:06:27;99391.09;;;27.24;61.34
14882;BME280;7533;51.278;12.588;2023-09-19T03:11:32;99386.97;;;27.20;61.35
14882;BME280;7533;51.278;12.588;2023-09-19T03:16:35;99389.34;;;27.15;61.43
14882;BME280;7533;51.278;12.588;2023-09-19T03:21:40;99385.09;;;27.12;61.66
14882;BME280;7533;51.278;12.588;2023-09-19T03:26:44;99394.41;;;27.10;61.35
14882;BME280;7533;51.278;12.588;2023-09-19T03:31:49;99404.88;;;27.05;61.59
14882;BME280;7533;51.278;12.588;2023-09-19T03:36:53;99408.25;;;26.99;61.53
14882;BME280;7533;51.278;12.588;2023-09-19T03:41:57;99402.69;;;27.00;61.41
14882;BME280;7533;51.278;12.588;2023-09-19T03:47:00;99412.84;;;26.98;61.33
14882;BME280;7533;51.278;12.588;2023-09-19T03:52:05;99413.00;;;26.97;61.75
14882;BME280;7533;51.278;12.588;2023-09-19T03:57:08;99416.75;;;26.96;61.67
14882;BME280;7533;51.278;12.588;2023-09-19T04:02:11;99424.34;;;26.92;61.93
14882;BME280;7533;51.278;12.588;2023-09-19T04:07:26;99420.13;;;26.89;61.74
14882;BME280;7533;51.278;12.588;2023-09-19T04:12:30;99433.00;;;26.87;61.70
14882;BME280;7533;51.278;12.588;2023-09-19T04:17:34;99430.63;;;26.84;61.98
14882;BME280;7533;51.278;12.588;2023-09-19T04:22:38;99442.63;;;26.82;61.99
14882;BME280;7533;51.278;12.588;2023-09-19T04:27:41;99441.78;;;26.81;62.04
14882;BME280;7533;51.278;12.588;2023-09-19T04:32:45;99452.66;;;26.81;61.87
14882;BME280;7533;51.278;12.588;2023-09-19T04:37:54;99456.53;;;26.79;62.18
14882;BME280;7533;51.278;12.588;2023-09-19T04:42:58;99464.16;;;26.75;61.30
14882;BME280;7533;51.278;12.588;2023-09-19T04:48:01;99469.38;;;26.69;61.33
14882;BME280;7533;51.278;12.588;2023-09-19T04:53:06;99476.28;;;26.63;61.43
14882;BME280;7533;51.278;12.588;2023-09-19T04:58:09;99473.88;;;26.60;61.13
14882;BME280;7533;51.278;12.588;2023-09-19T05:03:12;99487.41;;;26.52;61.42
14882;BME280;7533;51.278;12.588;2023-09-19T05:08:17;99496.78;;;26.40;61.19
14882;BME280;7533;51.278;12.588;2023-09-19T05:13:19;99495.22;;;26.37;61.43
14882;BME280;7533;51.278;12.588;2023-09-19T05:18:24;99509.28;;;26.32;61.58
14882;BME280;7533;51.278;12.588;2023-09-19T05:23:28;99532.16;;;26.30;60.99
14882;BME280;7533;51.278;12.588;2023-09-19T05:28:31;99523.44;;;26.26;61.09
14882;BME280;7533;51.278;12.588;2023-09-19T05:33:36;99527.19;;;26.25;61.11
14882;BME280;7533;51.278;12.588;2023-09-19T05:38:40;99533.56;;;26.16;60.85
14882;BME280;7533;51.278;12.588;2023-09-19T05:43:43;99546.09;;;26.17;60.86
14882;BME280;7533;51.278;12.588;2023-09-19T05:48:46;99552.06;;;26.03;61.23
14882;BME280;7533;51.278;12.588;2023-09-19T05:53:52;99566.78;;;26.00;60.94
14882;BME280;7533;51.278;12.588;2023-09-19T05:58:56;99566.31;;;26.05;60.70
14882;BME280;7533;51.278;12.588;2023-09-19T06:03:58;99564.28;;;24.48;61.37
14882;BME280;7533;51.278;12.588;2023-09-19T06:09:03;99582.06;;;23.62;63.15
14882;BME280;7533;51.278;12.588;2023-09-19T06:14:06;99583.72;;;23.23;63.97
14882;BME280;7533;51.278;12.588;2023-09-19T06:19:11;99594.50;;;22.92;64.71
14882;BME280;7533;51.278;12.588;2023-09-19T06:24:16;99608.56;;;22.75;65.65
14882;BME280;7533;51.278;12.588;2023-09-19T06:29:19;99618.94;;;22.91;65.59
14882;BME280;7533;51.278;12.588;2023-09-19T06:34:22;99618.63;;;22.73;66.16
14882;BME280;7533;51.278;12.588;2023-09-19T06:39:26;99618.88;;;22.70;65.51
14882;BME280;7533;51.278;12.588;2023-09-19T06:44:29;99622.41;;;22.50;65.46
14882;BME280;7533;51.278;12.588;2023-09-19T06:49:33;99625.06;;;22.29;65.51
14882;BME280;7533;51.278;12.588;2023-09-19T06:54:38;99621.56;;;22.17;65.77
14882;BME280;7533;51.278;12.588;2023-09-19T06:59:41;99627.78;;;22.06;65.75
14882;BME280;7533;51.278;12.588;2023-09-19T07:04:44;99624.44;;;22.89;65.58
14882;BME280;7533;51.278;12.588;2023-09-19T07:09:49;99632.06;;;23.57;64.16
14882;BME280;7533;51.278;12.588;2023-09-19T07:14:55;99636.66;;;23.96;63.19
14882;BME280;7533;51.278;12.588;2023-09-19T07:19:58;99641.81;;;24.28;62.89
14882;BME280;7533;51.278;12.588;2023-09-19T07:25:03;99647.75;;;24.53;63.62
14882;BME280;7533;51.278;12.588;2023-09-19T07:30:08;99647.28;;;24.67;63.15
14882;BME280;7533;51.278;12.588;2023-09-19T07:35:11;99672.25;;;24.80;63.22
14882;BME280;7533;51.278;12.588;2023-09-19T07:40:16;99682.19;;;24.90;62.29
14882;BME280;7533;51.278;12.588;2023-09-19T07:45:19;99684.31;;;24.96;62.56
14882;BME280;7533;51.278;12.588;2023-09-19T07:50:22;99684.34;;;25.05;62.67
14882;BME280;7533;51.278;12.588;2023-09-19T07:55:26;99703.31;;;25.15;62.53
14882;BME280;7533;51.278;12.588;2023-09-19T08:00:30;99700.88;;;25.22;62.63
14882;BME280;7533;51.278;12.588;2023-09-19T08:05:36;99707.56;;;25.27;62.72
14882;BME280;7533;51.278;12.588;2023-09-19T08:10:41;99711.53;;;25.33;62.42
14882;BME280;7533;51.278;12.588;2023-09-19T08:15:47;99713.66;;;25.39;62.10
14882;BME280;7533;51.278;12.588;2023-09-19T08:20:51;99715.09;;;25.43;62.05
14882;BME280;7533;51.278;12.588;2023-09-19T08:25:57;99717.50;;;25.46;62.34
14882;BME280;7533;51.278;12.588;2023-09-19T08:31:04;99714.91;;;25.54;61.85
14882;BME280;7533;51.278;12.588;2023-09-19T08:36:08;99718.31;;;25.56;62.16
14882;BME280;7533;51.278;12.588;2023-09-19T08:41:12;99720.44;;;25.63;62.11
14882;BME280;7533;51.278;12.588;2023-09-19T08:46:15;99721.03;;;25.66;61.92
14882;BME280;7533;51.278;12.588;2023-09-19T08:51:26;99717.72;;;25.72;62.06
14882;BME280;7533;51.278;12.588;2023-09-19T08:56:32;99717.72;;;25.72;61.84
14882;BME280;7533;51.278;12.588;2023-09-19T09:01:35;99709.72;;;25.80;61.62
14882;BME280;7533;51.278;12.588;2023-09-19T09:06:53;99704.16;;;25.82;61.65
14882;BME280;7533;51.278;12.588;2023-09-19T09:11:58;99725.97;;;25.90;64.17
14882;BME280;7533;51.278;12.588;2023-09-19T09:17:02;99726.53;;;25.94;66.66
14882;BME280;7533;51.278;12.588;2023-09-19T09:22:07;99727.63;;;26.01;67.49
14882;BME280;7533;51.278;12.588;2023-09-19T09:27:12;99723.06;;;26.01;67.85
14882;BME280;7533;51.278;12.588;2023-09-19T09:32:17;99737.84;;;25.79;61.45
14882;BME280;7533;51.278;12.588;2023-09-19T09:37:22;99739.25;;;25.64;59.17
14882;BME280;7533;51.278;12.588;2023-09-19T09:42:32;99733.50;;;25.96;59.03
14882;BME280;7533;51.278;12.588;2023-09-19T09:47:41;99731.16;;;26.11;60.13
14882;BME280;7533;51.278;12.588;2023-09-19T09:52:52;99737.22;;;26.23;60.04
14882;BME280;7533;51.278;12.588;2023-09-19T09:58:19;99740.34;;;26.28;60.58
14882;BME280;7533;51.278;12.588;2023-09-19T10:03:32;99735.00;;;26.36;60.31
14882;BME280;7533;51.278;12.588;2023-09-19T10:08:57;99741.72;;;26.42;60.55
14882;BME280;7533;51.278;12.588;2023-09-19T10:14:06;99749.13;;;26.49;60.06
14882;BME280;7533;51.278;12.588;2023-09-19T10:19:15;99746.13;;;26.43;60.29
14882;BME280;7533;51.278;12.588;2023-09-19T10:24:20;99756.50;;;26.57;60.16
14882;BME280;7533;51.278;12.588;2023-09-19T10:29:29;99750.91;;;26.58;59.90
14882;BME280;7533;51.278;12.588;2023-09-19T10:34:38;99767.59;;;26.63;58.30
14882;BME280;7533;51.278;12.588;2023-09-19T10:39:46;99755.59;;;26.66;58.45
14882;BME280;7533;51.278;12.588;2023-09-19T10:44:52;99753.22;;;26.71;58.13
14882;BME280;7533;51.278;12.588;2023-09-19T10:49:56;99750.41;;;26.73;56.88
14882;BME280;7533;51.278;12.588;2023-09-19T10:55:00;99746.34;;;26.77;56.79
14882;BME280;7533;51.278;12.588;2023-09-19T11:00:06;99766.06;;;26.79;56.14
14882;BME280;7533;51.278;12.588;2023-09-19T11:05:24;99764.19;;;26.79;56.10
14882;BME280;7533;51.278;12.588;2023-09-19T11:10:46;99759.34;;;26.83;55.72
14882;BME280;7533;51.278;12.588;2023-09-19T11:16:04;99761.72;;;26.86;55.42
14882;BME280;7533;51.278;12.588;2023-09-19T11:27:09;99754.44;;;26.86;55.17
14882;BME280;7533;51.278;12.588;2023-09-19T11:32:13;99769.09;;;26.94;54.81
14882;BME280;7533;51.278;12.588;2023-09-19T11:43:32;99764.03;;;26.99;54.23
14882;BME280;7533;51.278;12.588;2023-09-19T11:48:43;99757.31;;;27.03;54.55
14882;BME280;7533;51.278;12.588;2023-09-19T11:53:49;99763.31;;;27.06;53.72
14882;BME280;7533;51.278;12.588;2023-09-19T11:58:54;99757.00;;;27.06;53.35
14882;BME280;7533;51.278;12.588;2023-09-19T12:04:00;99769.28;;;27.10;53.22
14882;BME280;7533;51.278;12.588;2023-09-19T12:09:04;99751.50;;;27.15;53.24
14882;BME280;7533;51.278;12.588;2023-09-19T12:14:09;99755.44;;;27.21;53.59
14882;BME280;7533;51.278;12.588;2023-09-19T12:19:19;99756.03;;;27.07;53.23
14882;BME280;7533;51.278;12.588;2023-09-19T12:24:25;99761.50;;;27.15;53.11
14882;BME280;7533;51.278;12.588;2023-09-19T12:29:31;99755.84;;;27.26;52.56
14882;BME280;7533;51.278;12.588;2023-09-19T12:34:37;99753.44;;;27.23;52.55
14882;BME280;7533;51.278;12.588;2023-09-19T12:39:45;99747.31;;;27.21;52.66
14882;BME280;7533;51.278;12.588;2023-09-19T12:44:51;99747.63;;;27.18;53.06
14882;BME280;7533;51.278;12.588;2023-09-19T12:50:08;99740.00;;;27.22;52.88
14882;BME280;7533;51.278;12.588;2023-09-19T12:55:23;99741.56;;;27.24;52.85
14882;BME280;7533;51.278;12.588;2023-09-19T13:00:33;99738.84;;;27.24;53.11
14882;BME280;7533;51.278;12.588;2023-09-19T13:05:57;99734.72;;;27.20;52.93
14882;BME280;7533;51.278;12.588;2023-09-19T13:11:03;99725.31;;;27.32;53.43
14882;BME280;7533;51.278;12.588;2023-09-19T13:16:08;99732.22;;;27.45;53.45
14882;BME280;7533;51.278;12.588;2023-09-19T13:21:27;99723.75;;;27.48;53.15
14882;BME280;7533;51.278;12.588;2023-09-19T13:26:30;99713.50;;;27.41;53.19
14882;BME280;7533;51.278;12.588;2023-09-19T13:31:33;99715.69;;;27.38;53.59
14882;BME280;7533;51.278;12.588;2023-09-19T13:36:37;99713.28;;;27.35;53.55
14882;BME280;7533;51.278;12.588;2023-09-19T13:41:41;99707.00;;;27.34;53.65
14882;BME280;7533;51.278;12.588;2023-09-19T13:46:44;99709.78;;;27.42;53.55
14882;BME280;7533;51.278;12.588;2023-09-19T13:51:50;99703.56;;;27.32;53.54
14882;BME280;7533;51.278;12.588;2023-09-19T13:56:52;99706.53;;;27.39;53.50
14882;BME280;7533;51.278;12.588;2023-09-19T14:01:55;99699.00;;;27.33;53.39
14882;BME280;7533;51.278;12.588;2023-09-19T14:07:00;99700.84;;;27.32;53.27
14882;BME280;7533;51.278;12.588;2023-09-19T14:12:03;99697.03;;;27.43;53.18
14882;BME280;7533;51.278;12.588;2023-09-19T14:17:06;99682.75;;;27.41;53.15
14882;BME280;7533;51.278;12.588;2023-09-19T14:22:12;99686.69;;;27.47;53.15
14882;BME280;7533;51.278;12.588;2023-09-19T14:27:15;99670.53;;;27.97;52.27
14882;BME280;7533;51.278;12.588;2023-09-19T14:32:18;99672.38;;;28.39;51.75
14882;BME280;7533;51.278;12.588;2023-09-19T14:37:23;99679.59;;;28.64;51.02
14882;BME280;7533;51.278;12.588;2023-09-19T14:42:26;99665.50;;;28.85;50.36
14882;BME280;7533;51.278;12.588;2023-09-19T14:47:30;99673.69;;;28.93;50.09
14882;BME280;7533;51.278;12.588;2023-09-19T14:52:34;99682.53;;;28.95;49.90
14882;BME280;7533;51.278;12.588;2023-09-19T14:57:38;99670.13;;;29.09;49.64
14882;BME280;7533;51.278;12.588;2023-09-19T15:02:42;99665.84;;;29.15;49.43
14882;BME280;7533;51.278;12.588;2023-09-19T15:07:49;99658.19;;;29.18;49.50
14882;BME280;7533;51.278;12.588;2023-09-19T15:12:53;99671.81;;;28.94;49.42
14882;BME280;7533;51.278;12.588;2023-09-19T15:17:55;99665.63;;;28.84;49.90
14882;BME280;7533;51.278;12.588;2023-09-19T15:23:00;99671.44;;;28.89;49.57
14882;BME280;7533;51.278;12.588;2023-09-19T15:28:04;99669.56;;;28.81;50.09
14882;BME280;7533;51.278;12.588;2023-09-19T15:33:09;99668.06;;;29.03;49.54
14882;BME280;7533;51.278;12.588;2023-09-19T15:38:14;99646.94;;;29.13;49.54
14882;BME280;7533;51.278;12.588;2023-09-19T15:43:17;99650.53;;;29.14;49.56
14882;BME280;7533;51.278;12.588;2023-09-19T15:48:20;99655.13;;;29.13;49.56
14882;BME280;7533;51.278;12.588;2023-09-19T15:53:25;99657.84;;;29.13;49.34
14882;BME280;7533;51.278;12.588;2023-09-19T15:58:30;99663.63;;;29.10;49.20
14882;BME280;7533;51.278;12.588;2023-09-19T16:03:34;99661.44;;;29.14;49.04
14882;BME280;7533;51.278;12.588;2023-09-19T16:08:40;99666.34;;;29.27;48.63
14882;BME280;7533;51.278;12.588;2023-09-19T16:13:43;99671.63;;;29.36;49.35
14882;BME280;7533;51.278;12.588;2023-09-19T16:18:48;99675.31;;;29.51;48.95
14882;BME280;7533;51.278;12.588;2023-09-19T16:23:52;99682.00;;;28.92;40.99
14882;BME280;7533;51.278;12.588;2023-09-19T16:28:57;99680.91;;;28.02;41.08
14882;BME280;7533;51.278;12.588;2023-09-19T16:34:03;99691.47;;;27.45;41.47
14882;BME280;7533;51.278;12.588;2023-09-19T16:39:07;99689.88;;;26.98;42.01
14882;BME280;7533;51.278;12.588;2023-09-19T16:44:12;99680.88;;;26.62;42.52
14882;BME280;7533;51.278;12.588;2023-09-19T16:49:15;99685.69;;;26.23;43.12
14882;BME280;7533;51.278;12.588;2023-09-19T16:54:20;99684.28;;;25.91;43.71
14882;BME280;7533;51.278;12.588;2023-09-19T16:59:23;99687.38;;;25.59;44.42
14882;BME280;7533;51.278;12.588;2023-09-19T17:04:26;99704.09;;;25.45;44.56
14882;BME280;7533;51.278;12.588;2023-09-19T17:09:32;99706.13;;;25.04;44.56
14882;BME280;7533;51.278;12.588;2023-09-19T17:14:35;99702.72;;;24.83;44.63
14882;BME280;7533;51.278;12.588;2023-09-19T17:19:38;99705.69;;;24.60;44.50
14882;BME280;7533;51.278;12.588;2023-09-19T17:24:42;99707.38;;;24.42;44.47
14882;BME280;7533;51.278;12.588;2023-09-19T17:29:47;99709.28;;;24.20;44.48
14882;BME280;7533;51.278;12.588;2023-09-19T17:34:50;99720.50;;;24.16;44.77
14882;BME280;7533;51.278;12.588;2023-09-19T17:39:54;99726.72;;;24.07;45.33
14882;BME280;7533;51.278;12.588;2023-09-19T17:44:58;99732.78;;;24.29;45.22
14882;BME280;7533;51.278;12.588;2023-09-19T17:50:00;99737.34;;;24.69;44.57
14882;BME280;7533;51.278;12.588;2023-09-19T17:55:07;99742.28;;;24.74;44.75
14882;BME280;7533;51.278;12.588;2023-09-19T18:00:10;99740.75;;;25.00;45.83
14882;BME280;7533;51.278;12.588;2023-09-19T18:05:15;99739.56;;;25.61;46.45
14882;BME280;7533;51.278;12.588;2023-09-19T18:10:20;99737.38;;;25.94;46.35
14882;BME280;7533;51.278;12.588;2023-09-19T18:15:23;99751.94;;;26.20;46.87
14882;BME280;7533;51.278;12.588;2023-09-19T18:20:27;99758.72;;;26.34;47.40
14882;BME280;7533;51.278;12.588;2023-09-19T18:25:31;99763.13;;;26.45;48.04
14882;BME280;7533;51.278;12.588;2023-09-19T18:30:36;99774.88;;;26.63;48.72
14882;BME280;7533;51.278;12.588;2023-09-19T18:35:39;99779.47;;;26.80;48.95
14882;BME280;7533;51.278;12.588;2023-09-19T18:40:44;99788.41;;;26.90;49.21
14882;BME280;7533;51.278;12.588;2023-09-19T18:45:54;99784.91;;;26.98;49.25
14882;BME280;7533;51.278;12.588;2023-09-19T18:50:58;99787.16;;;27.12;49.17
14882;BME280;7533;51.278;12.588;2023-09-19T18:56:08;99785.22;;;27.23;49.05
14882;BME280;7533;51.278;12.588;2023-09-19T19:01:12;99792.09;;;27.35;48.98
14882;BME280;7533;51.278;12.588;2023-09-19T19:06:18;99803.19;;;27.41;49.04
14882;BME280;7533;51.278;12.588;2023-09-19T19:11:24;99807.38;;;27.54;49.06
14882;BME280;7533;51.278;12.588;2023-09-19T19:16:31;99797.03;;;27.57;48.93
14882;BME280;7533;51.278;12.588;2023-09-19T19:21:35;99804.41;;;27.65;48.81
14882;BME280;7533;51.278;12.588;2023-09-19T19:26:40;99807.91;;;27.75;48.62
14882;BME280;7533;51.278;12.588;2023-09-19T19:31:43;99812.03;;;27.79;48.63
14882;BME280;7533;51.278;12.588;2023-09-19T19:36:46;99806.13;;;27.84;48.61
14882;BME280;7533;51.278;12.588;2023-09-19T19:41:50;99811.22;;;27.87;48.28
14882;BME280;7533;51.278;12.588;2023-09-19T19:46:54;99812.28;;;27.94;48.38
14882;BME280;7533;51.278;12.588;2023-09-19T19:51:57;99815.38;;;27.99;48.19
14882;BME280;7533;51.278;12.588;2023-09-19T19:57:01;99817.31;;;28.07;48.10
14882;BME280;7533;51.278;12.588;2023-09-19T20:02:05;99812.94;;;28.14;48.00
14882;BME280;7533;51.278;12.588;2023-09-19T20:07:17;99813.59;;;28.16;48.03
14882;BME280;7533;51.278;12.588;2023-09-19T20:12:22;99819.59;;;28.19;48.00
14882;BME280;7533;51.278;12.588;2023-09-19T20:17:26;99813.66;;;28.24;47.73
14882;BME280;7533;51.278;12.588;2023-09-19T20:22:30;99823.91;;;28.30;47.80
14882;BME280;7533;51.278;12.588;2023-09-19T20:27:35;99817.31;;;28.33;47.45
14882;BME280;7533;51.278;12.588;2023-09-19T20:32:39;99812.16;;;28.30;47.68
14882;BME280;7533;51.278;12.588;2023-09-19T20:37:42;99814.72;;;28.31;47.61
14882;BME280;7533;51.278;12.588;2023-09-19T20:42:48;99809.59;;;28.28;47.74
14882;BME280;7533;51.278;12.588;2023-09-19T20:47:51;99804.41;;;28.35;47.38
14882;BME280;7533;51.278;12.588;2023-09-19T20:52:55;99800.44;;;28.29;47.43
14882;BME280;7533;51.278;12.588;2023-09-19T20:57:59;99793.34;;;28.36;47.23
14882;BME280;7533;51.278;12.588;2023-09-19T21:03:03;99789.66;;;28.45;47.34
14882;BME280;7533;51.278;12.588;2023-09-19T21:08:06;99787.41;;;28.41;47.07
14882;BME280;7533;51.278;12.588;2023-09-19T21:13:11;99784.50;;;28.42;46.92
14882;BME280;7533;51.278;12.588;2023-09-19T21:18:14;99787.44;;;28.49;46.83
14882;BME280;7533;51.278;12.588;2023-09-19T21:23:17;99787.97;;;28.53;46.74
14882;BME280;7533;51.278;12.588;2023-09-19T21:28:22;99793.59;;;28.59;46.61
14882;BME280;7533;51.278;12.588;2023-09-19T21:33:25;99782.88;;;28.58;46.78
14882;BME280;7533;51.278;12.588;2023-09-19T21:38:28;99778.47;;;28.65;46.76
14882;BME280;7533;51.278;12.588;2023-09-19T21:43:32;99783.06;;;28.64;46.39
14882;BME280;7533;51.278;12.588;2023-09-19T21:48:37;99788.16;;;28.67;46.67
14882;BME280;7533;51.278;12.588;2023-09-19T21:53:40;99774.22;;;28.70;46.66
14882;BME280;7533;51.278;12.588;2023-09-19T21:58:45;99773.69;;;28.67;46.42
14882;BME280;7533;51.278;12.588;2023-09-19T22:03:48;99771.81;;;28.67;46.48
14882;BME280;7533;51.278;12.588;2023-09-19T22:08:51;99773.19;;;28.63;46.90
14882;BME280;7533;51.278;12.588;2023-09-19T22:13:56;99778.13;;;28.60;46.69
14882;BME280;7533;51.278;12.588;2023-09-19T22:18:59;99767.88;;;28.54;46.80
14882;BME280;7533;51.278;12.588;2023-09-19T22:24:02;99767.81;;;28.37;47.42
14882;BME280;7533;51.278;12.588;2023-09-19T22:29:08;99776.59;;;28.31;47.54
14882;BME280;7533;51.278;12.588;2023-09-19T22:34:11;99759.13;;;28.34;47.25
14882;BME280;7533;51.278;12.588;2023-09-19T22:39:14;99760.59;;;28.28;47.78
14882;BME280;7533;51.278;12.588;2023-09-19T22:44:24;99771.56;;;28.10;48.11
14882;BME280;7533;51.278;12.588;2023-09-19T22:49:27;99772.13;;;28.14;47.91
14882;BME280;7533;51.278;12.588;2023-09-19T22:54:30;99785.34;;;28.09;47.87
14882;BME280;7533;51.278;12.588;2023-09-19T22:59:39;99781.69;;;27.92;48.25
14882;BME280;7533;51.278;12.588;2023-09-19T23:04:42;99780.50;;;27.94;48.27
14882;BME280;7533;51.278;12.588;2023-09-19T23:09:46;99782.22;;;27.96;48.12
14882;BME280;7533;51.278;12.588;2023-09-19T23:14:50;99785.78;;;27.96;48.50
14882;BME280;7533;51.278;12.588;2023-09-19T23:19:55;99784.69;;;27.89;48.67
14882;BME280;7533;51.278;12.588;2023-09-19T23:25:00;99776.34;;;27.82;48.71
14882;BME280;7533;51.278;12.588;2023-09-19T23:30:16;99778.16;;;27.74;49.15
14882;BME280;7533;51.278;12.588;2023-09-19T23:35:20;99776.59;;;27.71;49.18
14882;BME280;7533;51.278;12.588;2023-09-19T23:40:24;99782.75;;;27.73;49.21
14882;BME280;7533;51.278;12.588;2023-09-19T23:45:32;99791.53;;;27.67;49.38
14882;BME280;7533;51.278;12.588;2023-09-19T23:50:35;99790.75;;;27.57;49.42
14882;BME280;7533;51.278;12.588;2023-09-19T23:55:43;99792.13;;;27.61;49.44
